Athens, Indiana
Current Conditions -  °F | °C
As of 6:15 AM on Friday 24 Oct 2014 (Local Time) from KRCR Reporting Station
Moderate Rain Moderate Rain  
Wind Chill: 48°   Ceiling: 1900
Heat Index: 48°   Visibility: 5mi
Dew Point: 46°   Wind: 3mph
Humidity: 93%   Direction: 200°SSW
Pressure: 30.09"   Gusts: NA
Location:  41.05°N, 86.13°W
Report Text: KRCR 241015Z AUTO 20003KT 5SM RA SCT012 BKN019 BKN048 09/08 A3009 RMK AO2 P0001
Loading
Personal Weather Stations






























Interactive Weather Map
Tropical Storm Tracking
New forecast layout! Learn more

10-Day Weather Forecast

Advertisements
Track Severe Weather on mobile